Nausori, Nausori International Airport (NFNA)

NameNausori International Airport
CityNausori
CountryFiji
ICAONFNA
IATASUV
Altitude5 m
CoordinatesGoogle Map
Live Air TrafficLiveATC.net
METARNFNA 190100Z VRB02KT 9999 BKN020 BKN045 27/21 Q1009
2019-11-19 01:00:00 Wind: North (0°) 1.03 m/s - Visibility: > 10000 m - Temperature: 27 °C - Dew point: 21 °C - Humidity: 69.8% - Pressure: 1009 hPa

Sorry, no flights used the airport in this database.